createdAt,value
2019-05-15T00:03:16.048Z,100.00
2019-05-15T00:08:21.815Z,100.00
2019-05-15T00:13:28.292Z,100.00
2019-05-15T00:18:34.267Z,100.00
2019-05-15T00:23:41.734Z,100.00
2019-05-15T00:28:48.034Z,100.00
2019-05-15T00:33:53.906Z,100.00
2019-05-15T00:38:59.720Z,100.00
2019-05-15T00:44:05.484Z,100.00
2019-05-15T00:49:11.331Z,100.00
2019-05-15T00:54:19.139Z,100.00
2019-05-15T00:59:29.354Z,100.00
2019-05-15T01:04:32.074Z,100.00
2019-05-15T01:09:38.617Z,100.00
2019-05-15T01:14:44.523Z,100.00
2019-05-15T01:19:50.258Z,100.00
2019-05-15T01:24:56.079Z,100.00
2019-05-15T01:30:01.827Z,100.00
2019-05-15T01:35:09.732Z,100.00
2019-05-15T01:40:18.062Z,100.00
2019-05-15T01:45:23.193Z,100.00
2019-05-15T01:50:29.283Z,100.00
2019-05-15T01:55:35.136Z,100.00
2019-05-15T02:00:40.904Z,100.00
2019-05-15T02:05:48.069Z,100.00
2019-05-15T02:10:53.993Z,100.00
2019-05-15T02:15:59.673Z,100.00
2019-05-15T02:21:06.717Z,100.00
2019-05-15T02:26:12.815Z,100.00
2019-05-15T02:31:19.577Z,100.00
2019-05-15T02:36:29.044Z,100.00
2019-05-15T02:41:33.120Z,100.00
2019-05-15T02:46:39.311Z,100.00
2019-05-15T02:51:45.148Z,100.00
2019-05-15T02:56:50.810Z,100.00
2019-05-15T03:01:59.177Z,100.00
2019-05-15T03:07:03.993Z,100.00
2019-05-15T03:12:09.960Z,100.00
2019-05-15T03:17:18.921Z,100.00
2019-05-15T03:22:23.447Z,100.00
2019-05-15T03:27:30.384Z,100.00
2019-05-15T03:32:50.787Z,100.00
2019-05-15T03:37:44.901Z,100.00
2019-05-15T03:42:50.689Z,100.00
2019-05-15T03:47:59.539Z,100.00
2019-05-15T03:53:05.438Z,100.00
2019-05-15T03:58:11.240Z,100.00
2019-05-15T04:03:19.938Z,100.00
2019-05-15T04:08:24.308Z,100.00
2019-05-15T04:13:30.324Z,100.00
2019-05-15T04:18:39.364Z,100.00
2019-05-15T04:23:45.269Z,100.00
2019-05-15T04:28:52.478Z,100.00
2019-05-15T04:33:59.349Z,100.00
2019-05-15T04:39:09.820Z,100.00
2019-05-15T04:44:14.801Z,100.00
2019-05-15T04:49:20.463Z,100.00
2019-05-15T04:54:28.709Z,100.00
2019-05-15T04:59:33.576Z,100.00
2019-05-15T05:04:39.305Z,100.00
2019-05-15T05:09:45.075Z,100.00
2019-05-15T05:14:50.944Z,100.00
2019-05-15T05:19:58.326Z,100.00
2019-05-15T05:25:07.858Z,100.00
2019-05-15T05:30:12.978Z,100.00
2019-05-15T05:35:18.949Z,100.00
2019-05-15T05:40:24.746Z,100.00
2019-05-15T05:45:30.476Z,100.00
2019-05-15T05:50:38.793Z,100.00
2019-05-15T05:55:45.874Z,100.00
2019-05-15T06:00:51.777Z,100.00
2019-05-15T06:05:59.034Z,100.00
2019-05-15T06:11:05.054Z,100.00
2019-05-15T06:16:10.696Z,100.00
2019-05-15T06:21:17.938Z,100.00
2019-05-15T06:26:23.717Z,100.00
2019-05-15T06:31:29.420Z,100.00
2019-05-15T06:36:35.096Z,99.39
2019-05-15T06:41:40.768Z,88.51
2019-05-15T06:46:48.326Z,75.90
2019-05-15T06:51:53.737Z,64.40
2019-05-15T06:56:59.438Z,62.65
2019-05-15T07:02:05.110Z,59.01
2019-05-15T07:07:11.301Z,58.00
2019-05-15T07:12:18.653Z,58.72
2019-05-15T07:17:24.659Z,59.61
2019-05-15T07:22:30.316Z,59.18
2019-05-15T07:27:35.991Z,60.88
2019-05-15T07:32:41.630Z,62.65
2019-05-15T07:37:47.932Z,62.63
2019-05-15T07:42:53.700Z,64.14
2019-05-15T07:47:59.441Z,64.18
2019-05-15T07:53:05.437Z,66.03
2019-05-15T07:58:11.144Z,66.14
2019-05-15T08:03:18.404Z,65.92
2019-05-15T08:08:24.425Z,65.09
2019-05-15T08:13:30.176Z,65.00
2019-05-15T08:18:35.940Z,63.03
2019-05-15T08:23:41.909Z,63.62
2019-05-15T08:28:48.721Z,62.54
2019-05-15T08:34:11.667Z,60.11
2019-05-15T08:39:04.571Z,61.47
2019-05-15T08:44:10.278Z,62.89
2019-05-15T08:49:16.009Z,64.81
2019-05-15T08:54:21.695Z,64.61
2019-05-15T08:59:29.459Z,63.60
2019-05-15T09:04:35.250Z,60.21
2019-05-15T09:09:41.547Z,61.62
2019-05-15T09:14:48.685Z,60.68
2019-05-15T09:19:56.129Z,60.86
2019-05-15T09:25:02.713Z,61.76
2019-05-15T09:30:10.395Z,65.27
2019-05-15T09:35:20.794Z,69.20
2019-05-15T09:40:41.814Z,65.82
2019-05-15T09:45:34.416Z,68.75
2019-05-15T09:50:40.476Z,65.23
2019-05-15T09:55:49.007Z,68.85
2019-05-15T10:00:54.003Z,70.42
2019-05-15T10:05:59.983Z,74.27
2019-05-15T10:11:08.874Z,74.82
2019-05-15T10:16:13.858Z,72.23
2019-05-15T10:21:19.816Z,76.96
2019-05-15T10:26:28.394Z,76.13
2019-05-15T10:31:33.520Z,67.34
2019-05-15T10:36:39.474Z,69.82
2019-05-15T10:41:45.554Z,72.01
2019-05-15T10:46:53.332Z,70.18
2019-05-15T10:51:59.306Z,69.58
2019-05-15T10:57:08.519Z,69.84
2019-05-15T11:02:13.214Z,71.82
2019-05-15T11:07:19.663Z,71.96
2019-05-15T11:12:25.662Z,82.27
2019-05-15T11:17:31.765Z,77.74
2019-05-15T11:22:42.985Z,80.84
2019-05-15T11:27:49.011Z,83.33
2019-05-15T11:32:54.983Z,80.77
2019-05-15T11:38:01.062Z,84.66
2019-05-15T11:43:08.498Z,80.32
2019-05-15T11:48:14.456Z,81.01
2019-05-15T11:53:20.319Z,83.05
2019-05-15T11:58:28.304Z,86.74
2019-05-15T12:03:34.421Z,89.45
2019-05-15T12:08:40.442Z,90.11
2019-05-15T12:13:46.404Z,97.97
2019-05-15T12:18:52.089Z,94.25
2019-05-15T12:23:59.094Z,94.45
2019-05-15T12:29:04.995Z,88.74
2019-05-15T12:34:10.783Z,81.13
2019-05-15T12:39:21.828Z,85.91
2019-05-15T12:59:46.335Z,96.41
2019-05-15T13:04:55.039Z,97.71
2019-05-15T13:10:00.742Z,98.60
2019-05-15T13:15:08.748Z,91.06
2019-05-15T13:20:18.296Z,86.83
2019-05-15T13:25:24.485Z,88.14
2019-05-15T13:30:30.330Z,87.04
2019-05-15T13:35:38.073Z,87.87
2019-05-15T13:40:44.079Z,92.42
2019-05-15T13:45:49.750Z,94.92
2019-05-15T13:50:55.523Z,100.00
2019-05-15T13:56:01.271Z,100.00
2019-05-15T14:01:09.219Z,100.00
2019-05-15T14:06:14.380Z,100.00
2019-05-15T14:11:21.726Z,100.00
2019-05-15T14:16:30.613Z,100.00
2019-05-15T14:21:37.966Z,100.00
2019-05-15T14:26:44.003Z,100.00
2019-05-15T14:31:49.879Z,100.00
2019-05-15T14:36:55.546Z,100.00
2019-05-15T14:42:04.384Z,100.00
2019-05-15T14:47:10.141Z,100.00
2019-05-15T14:52:17.968Z,100.00
2019-05-15T14:57:23.730Z,100.00
2019-05-15T15:02:29.464Z,100.00
2019-05-15T15:07:37.972Z,100.00
2019-05-15T15:12:45.957Z,100.00
2019-05-15T15:17:51.712Z,100.00
2019-05-15T15:22:58.806Z,100.00
2019-05-15T15:28:08.243Z,100.00
2019-05-15T15:33:14.379Z,100.00
2019-05-15T15:38:36.695Z,100.00
2019-05-15T15:43:28.851Z,100.00
2019-05-15T15:48:39.119Z,100.00
2019-05-15T15:53:45.114Z,100.00
2019-05-15T15:58:50.760Z,100.00
2019-05-15T16:03:56.361Z,100.00
2019-05-15T16:09:02.422Z,100.00
2019-05-15T16:14:09.168Z,100.00
2019-05-15T16:19:15.292Z,100.00
2019-05-15T16:24:21.956Z,100.00
2019-05-15T16:29:28.311Z,100.00
2019-05-15T16:34:34.064Z,100.00
2019-05-15T16:39:39.750Z,100.00
2019-05-15T16:44:45.449Z,100.00
2019-05-15T16:49:51.122Z,100.00
2019-05-15T16:54:58.154Z,100.00
2019-05-15T17:00:05.097Z,100.00
2019-05-15T17:05:12.147Z,100.00
2019-05-15T17:10:18.203Z,100.00
2019-05-15T17:15:23.904Z,100.00
2019-05-15T17:20:32.766Z,100.00
2019-05-15T17:25:38.535Z,100.00
2019-05-15T17:30:44.260Z,100.00
2019-05-15T17:35:51.479Z,100.00
2019-05-15T17:40:57.860Z,100.00
2019-05-15T17:46:04.118Z,100.00
2019-05-15T17:51:09.827Z,100.00
2019-05-15T17:56:17.850Z,100.00
2019-05-15T18:01:23.769Z,100.00
2019-05-15T18:06:29.640Z,100.00
2019-05-15T18:11:35.416Z,100.00
2019-05-15T18:16:41.183Z,100.00
2019-05-15T18:21:49.588Z,100.00
2019-05-15T18:26:54.395Z,100.00
2019-05-15T18:32:04.009Z,100.00
2019-05-15T18:37:09.770Z,100.00
2019-05-15T18:42:15.444Z,100.00
2019-05-15T18:47:21.214Z,100.00
2019-05-15T18:52:28.740Z,100.00
2019-05-15T18:57:34.951Z,100.00
2019-05-15T19:02:40.980Z,100.00
2019-05-15T19:07:48.712Z,100.00
2019-05-15T19:12:54.569Z,100.00
2019-05-15T19:18:00.231Z,100.00
2019-05-15T19:23:07.979Z,100.00
2019-05-15T19:28:13.475Z,100.00
2019-05-15T19:33:32.990Z,100.00
2019-05-15T19:38:27.968Z,100.00
2019-05-15T19:43:33.782Z,100.00
2019-05-15T19:48:40.019Z,100.00
2019-05-15T19:53:47.849Z,100.00
2019-05-15T19:58:53.199Z,100.00
2019-05-15T20:03:58.941Z,100.00
2019-05-15T20:09:08.253Z,100.00
2019-05-15T20:14:14.114Z,100.00
2019-05-15T20:19:19.895Z,100.00
2019-05-15T20:24:25.835Z,100.00
2019-05-15T20:29:31.745Z,100.00
2019-05-15T20:34:38.006Z,100.00
2019-05-15T20:39:43.892Z,100.00
2019-05-15T20:44:50.787Z,100.00
2019-05-15T20:49:56.974Z,100.00
2019-05-15T20:55:03.161Z,100.00
2019-05-15T21:00:11.472Z,100.00
2019-05-15T21:05:18.817Z,100.00
2019-05-15T21:10:24.857Z,100.00
2019-05-15T21:15:30.618Z,100.00
2019-05-15T21:20:37.826Z,100.00
2019-05-15T21:25:48.461Z,100.00
2019-05-15T21:30:54.376Z,100.00
2019-05-15T21:36:00.458Z,100.00
2019-05-15T21:41:08.062Z,100.00
2019-05-15T21:46:13.946Z,100.00
2019-05-15T21:51:19.615Z,100.00
2019-05-15T21:56:28.446Z,100.00
2019-05-15T22:01:34.322Z,100.00
2019-05-15T22:06:40.094Z,100.00
2019-05-15T22:11:45.937Z,100.00
2019-05-15T22:16:54.689Z,100.00
2019-05-15T22:22:00.474Z,100.00
2019-05-15T22:27:09.470Z,100.00
2019-05-15T22:32:14.052Z,100.00
2019-05-15T22:37:22.748Z,100.00
2019-05-15T22:42:31.595Z,100.00
2019-05-15T22:47:36.854Z,100.00
2019-05-15T22:52:43.571Z,100.00
2019-05-15T22:57:49.257Z,100.00
2019-05-15T23:02:54.928Z,100.00
2019-05-15T23:08:01.025Z,100.00
2019-05-15T23:13:06.690Z,100.00
2019-05-15T23:18:12.568Z,100.00
2019-05-15T23:23:18.284Z,100.00
2019-05-15T23:28:23.935Z,100.00
2019-05-15T23:33:29.595Z,100.00
2019-05-15T23:38:35.259Z,100.00
2019-05-15T23:43:43.958Z,100.00
2019-05-15T23:48:49.598Z,100.00
2019-05-15T23:53:55.388Z,100.00
2019-05-15T23:59:02.155Z,100.00
